Terminal Aerodrome Forecast
Issued by NWS St Louis, MO

Home | Current Version | Previous Version | Text Only | Print | Product List | Glossary On
Versions: 1 2 3 4 5 6 7 8 9 10 11 12 13 14 15 16 17 18 19 20 21 22 23 24 25 26
000
FTUS43 KLSX 241700
TAFSTL
TAF
KSTL 241721Z 2418/2524 25016G24KT P6SM FEW250
     FM250000 30007KT P6SM BKN040
     FM250600 36004KT P6SM SKC
     FM251500 10006KT P6SM SCT050=

USA.gov is the U.S. government's official web portal to all federal, state and local government web resources and services.